createdAt,value
2022-10-31T00:00:58.930Z,50
2022-10-31T00:03:58.734Z,50
2022-10-31T00:06:58.568Z,50
2022-10-31T00:09:59.496Z,50
2022-10-31T00:12:58.904Z,50
2022-10-31T00:15:58.661Z,50
2022-10-31T00:18:58.591Z,50
2022-10-31T00:21:58.809Z,50
2022-10-31T00:24:58.674Z,50
2022-10-31T00:27:59.468Z,50
2022-10-31T00:30:59.321Z,50
2022-10-31T00:33:58.925Z,50
2022-10-31T00:36:59.360Z,50
2022-10-31T00:39:58.340Z,50
2022-10-31T00:42:59.594Z,50
2022-10-31T00:45:58.362Z,50
2022-10-31T00:48:58.915Z,50
2022-10-31T00:51:58.640Z,50
2022-10-31T00:54:58.825Z,50
2022-10-31T00:57:58.872Z,50
2022-10-31T01:00:59.323Z,50
2022-10-31T01:03:58.731Z,50
2022-10-31T01:06:58.611Z,50
2022-10-31T01:09:58.707Z,50
2022-10-31T01:12:58.843Z,50
2022-10-31T01:15:58.640Z,50
2022-10-31T01:18:57.879Z,50
2022-10-31T01:21:58.654Z,50
2022-10-31T01:24:59.333Z,50
2022-10-31T01:27:59.305Z,50
2022-10-31T01:30:59.540Z,50
2022-10-31T01:33:59.511Z,50
2022-10-31T01:36:58.537Z,50
2022-10-31T01:39:58.429Z,50
2022-10-31T01:42:59.591Z,50
2022-10-31T01:45:58.296Z,50
2022-10-31T01:48:59.132Z,50
2022-10-31T01:51:58.467Z,50
2022-10-31T01:54:58.509Z,50
2022-10-31T01:57:58.277Z,50
2022-10-31T02:01:01.768Z,50
2022-10-31T02:03:58.878Z,50
2022-10-31T02:06:59.100Z,50
2022-10-31T02:09:59.132Z,50
2022-10-31T02:12:59.445Z,50
2022-10-31T02:15:58.307Z,50
2022-10-31T02:18:58.915Z,50
2022-10-31T02:21:58.582Z,50
2022-10-31T02:24:58.652Z,50
2022-10-31T02:27:59.413Z,50
2022-10-31T02:30:58.575Z,50
2022-10-31T02:33:58.655Z,50
2022-10-31T02:36:58.360Z,50
2022-10-31T02:39:59.133Z,50
2022-10-31T02:42:59.885Z,50
2022-10-31T02:45:59.103Z,50
2022-10-31T02:48:59.296Z,50
2022-10-31T02:51:59.403Z,50
2022-10-31T02:54:58.787Z,50
2022-10-31T02:57:58.739Z,50
2022-10-31T03:00:59.371Z,50
2022-10-31T03:03:58.343Z,50
2022-10-31T03:06:58.179Z,50
2022-10-31T03:09:58.924Z,50
2022-10-31T03:12:58.821Z,50
2022-10-31T03:15:59.169Z,50
2022-10-31T03:18:59.032Z,50
2022-10-31T03:21:58.281Z,50
2022-10-31T03:24:58.891Z,50
2022-10-31T03:27:59.767Z,50
2022-10-31T03:31:02.262Z,50
2022-10-31T03:33:58.443Z,50
2022-10-31T03:36:58.728Z,50
2022-10-31T03:39:59.000Z,50
2022-10-31T03:42:59.966Z,50
2022-10-31T03:45:58.587Z,50
2022-10-31T03:48:58.489Z,50
2022-10-31T03:51:58.540Z,50
2022-10-31T03:54:58.707Z,50
2022-10-31T03:57:59.246Z,50
2022-10-31T04:00:58.744Z,50
2022-10-31T04:03:59.441Z,50
2022-10-31T04:06:58.669Z,50
2022-10-31T04:09:59.262Z,50
2022-10-31T04:12:58.557Z,50
2022-10-31T04:15:59.056Z,50
2022-10-31T04:18:59.107Z,50
2022-10-31T04:21:59.215Z,50
2022-10-31T04:24:58.553Z,50
2022-10-31T04:27:59.149Z,50
2022-10-31T04:30:59.769Z,50
2022-10-31T04:33:58.438Z,50
2022-10-31T04:36:58.284Z,50
2022-10-31T04:39:58.968Z,50
2022-10-31T04:42:59.980Z,50
2022-10-31T04:45:59.858Z,50
2022-10-31T04:48:58.824Z,50
2022-10-31T04:51:58.735Z,50
2022-10-31T04:54:59.502Z,50
2022-10-31T04:57:59.268Z,50
2022-10-31T05:00:59.610Z,50
2022-10-31T05:03:58.764Z,50
2022-10-31T05:06:59.195Z,50
2022-10-31T05:09:59.587Z,50
2022-10-31T05:12:59.784Z,50
2022-10-31T05:15:59.467Z,50
2022-10-31T05:18:59.264Z,50
2022-10-31T05:21:59.350Z,50
2022-10-31T05:24:59.485Z,50
2022-10-31T05:27:59.827Z,50
2022-10-31T05:30:59.182Z,50
2022-10-31T05:33:58.202Z,50
2022-10-31T05:36:59.299Z,50
2022-10-31T05:40:01.240Z,50
2022-10-31T05:42:59.137Z,50
2022-10-31T05:45:59.478Z,50
2022-10-31T05:49:01.779Z,50
2022-10-31T05:51:58.959Z,50
2022-10-31T05:54:58.752Z,50
2022-10-31T05:57:59.775Z,50
2022-10-31T06:00:59.980Z,50.01
2022-10-31T06:03:59.045Z,50.03
2022-10-31T06:06:59.093Z,50.03
2022-10-31T06:09:59.725Z,50.02
2022-10-31T06:12:59.207Z,50.04
2022-10-31T06:15:58.732Z,50.05
2022-10-31T06:18:59.159Z,50.04
2022-10-31T06:21:58.887Z,50.02
2022-10-31T06:24:59.428Z,50.01
2022-10-31T06:27:59.467Z,50.02
2022-10-31T06:30:58.699Z,50
2022-10-31T06:33:59.064Z,49.98
2022-10-31T06:36:58.485Z,50.01
2022-10-31T06:39:58.614Z,50
2022-10-31T06:42:59.252Z,50.02
2022-10-31T06:45:58.791Z,50
2022-10-31T06:48:58.968Z,50.01
2022-10-31T06:51:59.612Z,50
2022-10-31T06:54:59.011Z,50.01
2022-10-31T06:58:02.045Z,49.99
2022-10-31T07:00:59.076Z,49.97
2022-10-31T07:03:58.971Z,49.99
2022-10-31T07:06:58.999Z,49.99
2022-10-31T07:09:59.076Z,49.99
2022-10-31T07:12:59.984Z,49.99
2022-10-31T07:15:58.644Z,49.98
2022-10-31T07:18:58.465Z,49.99
2022-10-31T07:21:59.377Z,50.01
2022-10-31T07:24:58.672Z,50.01
2022-10-31T07:27:59.654Z,50.02
2022-10-31T07:30:58.687Z,49.99
2022-10-31T07:33:58.785Z,50.01
2022-10-31T07:36:58.549Z,50.03
2022-10-31T07:39:59.581Z,50.03
2022-10-31T07:42:58.438Z,50.05
2022-10-31T07:45:59.295Z,50.04
2022-10-31T07:48:59.167Z,50.03
2022-10-31T07:51:59.158Z,50.04
2022-10-31T07:54:58.807Z,50.05
2022-10-31T07:57:59.377Z,50
2022-10-31T08:00:58.937Z,50
2022-10-31T08:03:59.070Z,50
2022-10-31T08:06:58.353Z,49.98
2022-10-31T08:09:58.848Z,50
2022-10-31T08:12:59.112Z,50.01
2022-10-31T08:15:58.735Z,49.98
2022-10-31T08:18:58.686Z,50
2022-10-31T08:21:58.746Z,49.99
2022-10-31T08:24:58.599Z,50.02
2022-10-31T08:27:59.036Z,50
2022-10-31T08:30:58.609Z,50
2022-10-31T08:33:58.643Z,50
2022-10-31T08:36:58.984Z,50.01
2022-10-31T08:39:59.563Z,50.02
2022-10-31T08:42:58.544Z,50.01
2022-10-31T08:45:59.021Z,49.99
2022-10-31T08:48:58.911Z,50.01
2022-10-31T08:51:59.388Z,50.01
2022-10-31T08:54:58.848Z,50.02
2022-10-31T08:57:59.706Z,50
2022-10-31T09:00:59.659Z,50
2022-10-31T09:03:58.552Z,49.97
2022-10-31T09:07:20.134Z,49.99
2022-10-31T09:09:58.915Z,50.01
2022-10-31T09:12:58.930Z,50.02
2022-10-31T09:15:58.308Z,49.96
2022-10-31T09:18:59.115Z,50.01
2022-10-31T09:21:59.229Z,50
2022-10-31T09:24:58.741Z,50
2022-10-31T09:27:58.867Z,50.02
2022-10-31T09:30:59.109Z,49.99
2022-10-31T09:33:58.314Z,50.01
2022-10-31T09:36:59.040Z,50
2022-10-31T09:39:58.710Z,50.02
2022-10-31T09:42:58.881Z,50.02
2022-10-31T09:45:59.944Z,49.98
2022-10-31T09:48:58.519Z,50.01
2022-10-31T09:51:58.550Z,50
2022-10-31T09:54:58.761Z,50.01
2022-10-31T09:57:59.463Z,50.01
2022-10-31T10:00:59.748Z,49.98
2022-10-31T10:03:58.359Z,49.98
2022-10-31T10:06:58.363Z,50
2022-10-31T10:09:58.889Z,50
2022-10-31T10:13:01.150Z,49.98
2022-10-31T10:15:58.675Z,49.98
2022-10-31T10:18:58.812Z,49.98
2022-10-31T10:21:59.452Z,49.99
2022-10-31T10:24:59.221Z,50
2022-10-31T10:27:58.613Z,50
2022-10-31T10:30:58.665Z,50
2022-10-31T10:33:59.361Z,50.01
2022-10-31T10:36:58.653Z,49.98
2022-10-31T10:39:58.942Z,50
2022-10-31T10:42:59.079Z,49.99
2022-10-31T10:45:58.300Z,49.99
2022-10-31T10:48:58.835Z,50.01
2022-10-31T10:52:13.309Z,49.99
2022-10-31T10:54:58.631Z,50
2022-10-31T10:57:59.663Z,50
2022-10-31T11:00:59.620Z,49.97
2022-10-31T11:04:25.653Z,49.96
2022-10-31T11:06:58.910Z,49.97
2022-10-31T11:09:59.558Z,50
2022-10-31T11:12:58.712Z,49.99
2022-10-31T11:15:59.441Z,50
2022-10-31T11:18:59.346Z,49.99
2022-10-31T11:21:59.274Z,49.98
2022-10-31T11:24:59.210Z,49.98
2022-10-31T11:27:59.222Z,49.99
2022-10-31T11:30:58.868Z,49.99
2022-10-31T11:33:59.037Z,50
2022-10-31T11:36:58.216Z,49.99
2022-10-31T11:39:59.202Z,49.98
2022-10-31T11:42:58.255Z,50
2022-10-31T11:45:59.141Z,50
2022-10-31T11:48:58.858Z,49.98
2022-10-31T11:51:58.451Z,49.99
2022-10-31T11:54:58.948Z,50.01
2022-10-31T11:57:59.531Z,50
2022-10-31T12:00:59.232Z,49.98
2022-10-31T12:03:58.642Z,49.98
2022-10-31T12:06:58.487Z,49.99
2022-10-31T12:09:58.883Z,49.99
2022-10-31T12:12:59.528Z,50.02
2022-10-31T12:15:59.434Z,49.98
2022-10-31T12:18:59.118Z,49.99
2022-10-31T12:22:00.839Z,50
2022-10-31T12:24:58.632Z,49.98
2022-10-31T12:27:58.513Z,50.01
2022-10-31T12:30:59.045Z,49.97
2022-10-31T12:33:58.447Z,49.96
2022-10-31T12:36:59.229Z,49.98
2022-10-31T12:39:58.877Z,49.97
2022-10-31T12:42:59.600Z,49.98
2022-10-31T12:45:59.154Z,49.98
2022-10-31T12:48:58.523Z,49.97
2022-10-31T12:51:58.365Z,49.97
2022-10-31T12:54:58.913Z,49.99
2022-10-31T12:57:59.307Z,50.01
2022-10-31T13:00:59.072Z,50.01
2022-10-31T13:03:58.727Z,50.05
2022-10-31T13:06:58.814Z,50.02
2022-10-31T13:09:58.816Z,50.01
2022-10-31T13:12:59.695Z,49.99
2022-10-31T13:15:59.142Z,50
2022-10-31T13:18:58.345Z,49.98
2022-10-31T13:21:59.573Z,49.98
2022-10-31T13:24:59.282Z,49.97
2022-10-31T13:27:58.402Z,49.96
2022-10-31T13:30:59.120Z,49.97
2022-10-31T13:33:58.944Z,49.97
2022-10-31T13:36:58.671Z,49.97
2022-10-31T13:39:58.559Z,49.98
2022-10-31T13:42:58.674Z,49.97
2022-10-31T13:45:59.339Z,49.99
2022-10-31T13:48:58.462Z,50
2022-10-31T13:51:59.159Z,49.99
2022-10-31T13:54:59.160Z,49.98
2022-10-31T13:57:58.584Z,50
2022-10-31T14:00:59.571Z,49.97
2022-10-31T14:04:10.970Z,49.98
2022-10-31T14:06:59.060Z,50
2022-10-31T14:09:59.304Z,50
2022-10-31T14:12:59.021Z,49.99
2022-10-31T14:15:59.132Z,50.01
2022-10-31T14:18:58.924Z,49.98
2022-10-31T14:21:59.325Z,49.96
2022-10-31T14:24:59.196Z,49.96
2022-10-31T14:28:00.132Z,49.95
2022-10-31T14:30:59.957Z,49.96
2022-10-31T14:33:58.819Z,49.96
2022-10-31T14:36:59.914Z,49.96
2022-10-31T14:39:59.182Z,49.95
2022-10-31T14:42:58.808Z,49.94
2022-10-31T14:45:59.488Z,49.97
2022-10-31T14:48:58.668Z,49.95
2022-10-31T14:51:58.529Z,49.96
2022-10-31T14:54:59.323Z,49.95
2022-10-31T14:57:59.495Z,49.97
2022-10-31T15:00:58.987Z,50.03
2022-10-31T15:04:22.232Z,50.01
2022-10-31T15:06:59.157Z,50
2022-10-31T15:09:59.494Z,49.98
2022-10-31T15:12:59.759Z,49.97
2022-10-31T15:15:59.338Z,49.97
2022-10-31T15:18:58.423Z,49.97
2022-10-31T15:21:59.011Z,49.97
2022-10-31T15:24:58.930Z,49.97
2022-10-31T15:27:59.375Z,49.97
2022-10-31T15:30:59.907Z,49.97
2022-10-31T15:33:58.763Z,49.96
2022-10-31T15:36:59.135Z,49.97
2022-10-31T15:39:59.894Z,49.95
2022-10-31T15:42:59.557Z,49.94
2022-10-31T15:45:58.750Z,49.97
2022-10-31T15:48:58.790Z,49.97
2022-10-31T15:54:59.232Z,49.96
2022-10-31T15:57:58.813Z,49.98
2022-10-31T16:00:59.674Z,50.05
2022-10-31T16:03:59.761Z,50.05
2022-10-31T16:07:00.383Z,50.05
2022-10-31T16:09:59.523Z,50.05
2022-10-31T16:12:59.040Z,50.05
2022-10-31T16:16:21.193Z,50.05
2022-10-31T16:18:59.369Z,50.05
2022-10-31T16:21:59.231Z,50.05
2022-10-31T16:24:59.264Z,50.05
2022-10-31T16:27:59.461Z,50.05
2022-10-31T16:30:59.794Z,50.05
2022-10-31T16:33:59.402Z,50.05
2022-10-31T16:36:59.101Z,50.05
2022-10-31T16:39:59.049Z,50.05
2022-10-31T16:42:59.429Z,50.05
2022-10-31T16:45:59.129Z,50.05
2022-10-31T16:48:58.960Z,50.05
2022-10-31T16:51:58.749Z,50.05
2022-10-31T16:54:58.755Z,50.05
2022-10-31T16:57:59.099Z,50.05
2022-10-31T17:00:59.791Z,50.05
2022-10-31T17:03:59.672Z,50.05
2022-10-31T17:06:58.464Z,50.05
2022-10-31T17:09:58.704Z,50.05
2022-10-31T17:12:59.005Z,50.05
2022-10-31T17:15:58.575Z,50.05
2022-10-31T17:18:59.191Z,50.05
2022-10-31T17:21:58.561Z,50.05
2022-10-31T17:24:59.331Z,50.05
2022-10-31T17:27:58.491Z,50.05
2022-10-31T17:30:58.970Z,50.05
2022-10-31T17:34:02.457Z,50.05
2022-10-31T17:36:59.176Z,50.05
2022-10-31T17:39:59.096Z,50.05
2022-10-31T17:42:59.537Z,50.05
2022-10-31T17:45:59.364Z,50.05
2022-10-31T17:48:58.520Z,50.05
2022-10-31T17:51:58.977Z,50.05
2022-10-31T17:54:59.210Z,50.05
2022-10-31T17:57:58.386Z,50.05
2022-10-31T18:01:26.063Z,50.05
2022-10-31T18:03:58.747Z,50.05
2022-10-31T18:06:58.823Z,50.05
2022-10-31T18:09:58.873Z,50.05
2022-10-31T18:12:59.406Z,50.05
2022-10-31T18:15:58.883Z,50.05
2022-10-31T18:18:59.513Z,50.05
2022-10-31T18:21:59.029Z,50.05
2022-10-31T18:25:02.075Z,50.05
2022-10-31T18:27:58.880Z,50.05
2022-10-31T18:30:59.269Z,50.05
2022-10-31T18:33:58.497Z,50.05
2022-10-31T18:36:59.224Z,50.05
2022-10-31T18:39:59.264Z,50.05
2022-10-31T18:42:58.385Z,50.05
2022-10-31T18:45:59.257Z,50.05
2022-10-31T18:48:59.199Z,50.05
2022-10-31T18:51:59.178Z,50.05
2022-10-31T18:54:58.221Z,50.05
2022-10-31T18:57:59.056Z,50.05
2022-10-31T19:00:58.959Z,50.05
2022-10-31T19:03:58.901Z,50.05
2022-10-31T19:06:59.027Z,50.05
2022-10-31T19:09:59.302Z,50.05
2022-10-31T19:12:59.134Z,50.05
2022-10-31T19:15:58.957Z,50.05
2022-10-31T19:18:59.009Z,50.05
2022-10-31T19:21:59.036Z,50.05
2022-10-31T19:24:58.788Z,50.05
2022-10-31T19:27:59.026Z,50.05
2022-10-31T19:30:58.623Z,50.05
2022-10-31T19:33:58.716Z,50.05
2022-10-31T19:36:59.102Z,50.05
2022-10-31T19:39:58.583Z,50.05
2022-10-31T19:42:59.253Z,50.05
2022-10-31T19:45:59.229Z,50.05
2022-10-31T19:48:59.321Z,50.05
2022-10-31T19:51:58.527Z,50.05
2022-10-31T19:54:59.226Z,50.05
2022-10-31T19:58:01.914Z,50.05
2022-10-31T20:03:58.973Z,50.05
2022-10-31T20:06:58.447Z,50.05
2022-10-31T20:09:59.338Z,50.05
2022-10-31T20:12:58.949Z,50.05
2022-10-31T20:15:59.013Z,50.05
2022-10-31T20:18:58.776Z,50.05
2022-10-31T20:21:58.301Z,50.05
2022-10-31T20:24:59.058Z,50.05
2022-10-31T20:27:58.969Z,50.05
2022-10-31T20:30:58.619Z,50.05
2022-10-31T20:33:58.705Z,50.05
2022-10-31T20:36:58.888Z,50.05
2022-10-31T20:39:58.321Z,50.05
2022-10-31T20:42:58.607Z,50.05
2022-10-31T20:45:59.154Z,50.05
2022-10-31T20:48:58.930Z,50.05
2022-10-31T20:51:59.520Z,50.05
2022-10-31T20:54:58.483Z,50.05
2022-10-31T20:57:58.950Z,50.05
2022-10-31T21:00:59.722Z,50.05
2022-10-31T21:03:58.691Z,50.05
2022-10-31T21:06:58.880Z,50.05
2022-10-31T21:09:58.921Z,50.05
2022-10-31T21:12:59.826Z,50.05
2022-10-31T21:15:58.624Z,50.05
2022-10-31T21:18:58.643Z,50.05
2022-10-31T21:21:58.446Z,50.05
2022-10-31T21:24:58.620Z,50.05
2022-10-31T21:27:59.445Z,50.05
2022-10-31T21:30:59.055Z,50.05
2022-10-31T21:33:58.882Z,50.05
2022-10-31T21:36:59.362Z,50.05
2022-10-31T21:39:59.671Z,50.05
2022-10-31T21:42:59.363Z,50.05
2022-10-31T21:45:59.312Z,50.05
2022-10-31T21:48:58.784Z,50.05
2022-10-31T21:51:59.248Z,50.05
2022-10-31T21:54:58.664Z,50.05
2022-10-31T21:57:59.301Z,50.05
2022-10-31T22:00:58.936Z,50.05
2022-10-31T22:03:58.531Z,50.05
2022-10-31T22:06:58.576Z,50.05
2022-10-31T22:09:59.176Z,50.05
2022-10-31T22:12:59.742Z,50.05
2022-10-31T22:15:58.514Z,50.05
2022-10-31T22:18:59.207Z,50.05
2022-10-31T22:21:59.229Z,50.05
2022-10-31T22:24:58.718Z,50.05
2022-10-31T22:27:59.372Z,50.05
2022-10-31T22:30:59.181Z,50.05
2022-10-31T22:33:58.791Z,50.05
2022-10-31T22:36:59.128Z,50.05
2022-10-31T22:39:58.623Z,50.05
2022-10-31T22:42:59.291Z,50.05
2022-10-31T22:45:59.107Z,50.05
2022-10-31T22:48:58.413Z,50.05
2022-10-31T22:51:59.011Z,50.05
2022-10-31T22:54:59.429Z,50.05
2022-10-31T22:57:59.015Z,50.05
2022-10-31T23:00:59.966Z,50.05
2022-10-31T23:03:59.517Z,50.05
2022-10-31T23:06:59.508Z,50.05
2022-10-31T23:09:58.798Z,50.05
2022-10-31T23:12:58.769Z,50.05
2022-10-31T23:15:59.321Z,50.05
2022-10-31T23:18:58.958Z,50.05
2022-10-31T23:21:58.823Z,50.05
2022-10-31T23:24:58.758Z,50.05
2022-10-31T23:27:58.456Z,50.05
2022-10-31T23:30:59.165Z,50.05
2022-10-31T23:33:58.385Z,50.05
2022-10-31T23:36:58.493Z,50.05
2022-10-31T23:39:58.955Z,50.05
2022-10-31T23:42:58.675Z,50.05
2022-10-31T23:45:58.331Z,50.05
2022-10-31T23:48:58.707Z,50.05
2022-10-31T23:51:59.087Z,50.05
2022-10-31T23:54:59.978Z,50.05
2022-10-31T23:57:59.392Z,50.05
